createdAt,value
2022-12-16T00:00:27.508Z,99850.13
2022-12-16T00:01:30.287Z,99856.22
2022-12-16T00:02:32.123Z,99860.97
2022-12-16T00:03:37.145Z,99851.81
2022-12-16T00:04:38.936Z,99858.34
2022-12-16T00:05:44.470Z,99862.81
2022-12-16T00:06:46.341Z,99859.16
2022-12-16T00:07:50.180Z,99854.47
2022-12-16T00:08:52.134Z,99848.31
2022-12-16T00:09:54.842Z,99853.75
2022-12-16T00:10:58.311Z,99857.81
2022-12-16T00:12:00.915Z,99864.50
2022-12-16T00:13:07.255Z,99864.56
2022-12-16T00:14:11.633Z,99866.84
2022-12-16T00:15:13.289Z,99871.59
2022-12-16T00:16:17.754Z,99868.53
2022-12-16T00:17:19.460Z,99866.97
2022-12-16T00:18:22.156Z,99874.06
2022-12-16T00:19:26.186Z,99876.16
2022-12-16T00:20:27.884Z,99868.78
2022-12-16T00:21:32.560Z,99866.63
2022-12-16T00:22:34.228Z,99873.78
2022-12-16T00:23:39.151Z,99864.13
2022-12-16T00:24:40.783Z,99864.28
2022-12-16T00:25:44.359Z,99862.28
2022-12-16T00:26:46.999Z,99878.81
2022-12-16T00:27:49.962Z,99871.59
2022-12-16T00:28:55.563Z,99875.41
2022-12-16T00:29:57.166Z,99877.88
2022-12-16T00:30:59.775Z,99869.44
2022-12-16T00:32:02.755Z,99869.44
2022-12-16T00:33:06.338Z,99872.09
2022-12-16T00:34:10.031Z,99870.13
2022-12-16T00:35:13.087Z,99874.88
2022-12-16T00:36:17.154Z,99867.63
2022-12-16T00:37:18.847Z,99866.44
2022-12-16T00:38:22.576Z,99860.91
2022-12-16T00:39:24.252Z,99861.47
2022-12-16T00:40:27.017Z,99861.53
2022-12-16T00:41:28.591Z,99861.91
2022-12-16T00:42:31.191Z,99858.38
2022-12-16T00:43:33.526Z,99850.81
2022-12-16T00:44:36.893Z,99841.94
2022-12-16T00:45:41.287Z,99848.81
2022-12-16T00:46:44.251Z,99846.84
2022-12-16T00:47:46.195Z,99840.97
2022-12-16T00:48:51.797Z,99850.88
2022-12-16T00:49:53.541Z,99848.81
2022-12-16T00:50:58.983Z,99844.81
2022-12-16T00:52:01.023Z,99843.41
2022-12-16T00:53:04.577Z,99842.72
2022-12-16T00:54:06.300Z,99843.47
2022-12-16T00:55:09.591Z,99836.78
2022-12-16T00:56:14.591Z,99843.97
2022-12-16T00:57:17.346Z,99831.47
2022-12-16T00:58:19.934Z,99838.97
2022-12-16T00:59:21.615Z,99839.25
2022-12-16T01:00:24.238Z,99842.19
2022-12-16T01:01:25.936Z,99844.53
2022-12-16T01:02:28.808Z,99849.59
2022-12-16T01:03:31.148Z,99847.63
2022-12-16T01:04:33.853Z,99851.88
2022-12-16T01:05:38.439Z,99848.84
2022-12-16T01:06:42.437Z,99849.34
2022-12-16T01:07:44.243Z,99847.22
2022-12-16T01:08:48.536Z,99854.56
2022-12-16T01:09:50.659Z,99852.94
2022-12-16T01:10:56.232Z,99853.91
2022-12-16T01:11:57.888Z,99844.84
2022-12-16T01:13:00.623Z,99852.38
2022-12-16T01:14:03.295Z,99855.88
2022-12-16T01:15:08.033Z,99858.53
2022-12-16T01:16:11.097Z,99863.16
2022-12-16T01:17:12.925Z,99854.41
2022-12-16T01:18:16.229Z,99857.84
2022-12-16T01:19:18.022Z,99858.09
2022-12-16T01:20:20.848Z,99860.50
2022-12-16T01:21:22.465Z,99862.03
2022-12-16T01:22:26.787Z,99868.94
2022-12-16T01:23:28.606Z,99862.34
2022-12-16T01:24:31.281Z,99864.81
2022-12-16T01:25:36.084Z,99857.88
2022-12-16T01:26:39.739Z,99866.63
2022-12-16T01:27:44.484Z,99866.41
2022-12-16T01:28:49.485Z,99869.66
2022-12-16T01:29:51.629Z,99862.47
2022-12-16T01:30:57.155Z,99863.75
2022-12-16T01:31:59.833Z,99859.81
2022-12-16T01:33:01.577Z,99862.31
2022-12-16T01:34:04.227Z,99868.41
2022-12-16T01:35:29.418Z,99867.72
2022-12-16T01:36:32.771Z,99859.72
2022-12-16T01:37:37.334Z,99860.03
2022-12-16T01:38:39.947Z,99857.41
2022-12-16T01:39:41.541Z,99859.94
2022-12-16T01:40:44.297Z,99855.13
2022-12-16T01:41:46.079Z,99849.78
2022-12-16T01:42:48.756Z,99854.97
2022-12-16T01:43:50.340Z,99861.13
2022-12-16T01:44:55.192Z,99865.44
2022-12-16T01:46:00.594Z,99856.47
2022-12-16T01:47:07.028Z,99859.19
2022-12-16T01:48:17.945Z,99857.34
2022-12-16T01:49:25.691Z,99851.38
2022-12-16T01:50:30.217Z,99854.97
2022-12-16T01:51:36.642Z,99848.41
2022-12-16T01:52:44.976Z,99858.03
2022-12-16T01:53:50.654Z,99852.03
2022-12-16T01:54:56.542Z,99860.22
2022-12-16T01:56:01.165Z,99845.47
2022-12-16T01:57:06.695Z,99859.00
2022-12-16T01:58:13.541Z,99853.56
2022-12-16T01:59:17.640Z,99857.19
2022-12-16T02:00:20.290Z,99849.78
2022-12-16T02:01:22.865Z,99849.22
2022-12-16T02:02:25.823Z,99848.22
2022-12-16T02:03:32.543Z,99841.75
2022-12-16T02:04:35.448Z,99841.63
2022-12-16T02:05:40.614Z,99846.94
2022-12-16T02:06:44.115Z,99844.25
2022-12-16T02:07:55.401Z,99851.41
2022-12-16T02:09:00.372Z,99837.69
2022-12-16T02:10:02.328Z,99845.50
2022-12-16T02:11:36.016Z,99851.94
2022-12-16T02:12:50.709Z,99848.59
2022-12-16T02:14:22.354Z,99851.56
2022-12-16T02:15:35.118Z,99851.72
2022-12-16T02:16:45.632Z,99845.47
2022-12-16T02:17:58.186Z,99855.72
2022-12-16T02:19:07.431Z,99859.81
2022-12-16T02:20:37.380Z,99852.25
2022-12-16T02:21:53.767Z,99854.94
2022-12-16T02:23:16.812Z,99852.75
2022-12-16T02:24:49.610Z,99854.97
2022-12-16T02:26:12.553Z,99858.44
2022-12-16T02:27:42.008Z,99855.63
2022-12-16T02:29:20.317Z,99852.16
2022-12-16T02:30:47.905Z,99859.50
2022-12-16T02:31:59.907Z,99858.72
2022-12-16T02:33:11.142Z,99853.41
2022-12-16T02:34:22.856Z,99853.41
2022-12-16T02:35:33.642Z,99857.75
2022-12-16T02:36:42.285Z,99857.41
2022-12-16T02:37:53.052Z,99856.69
2022-12-16T02:39:00.785Z,99855.13
2022-12-16T02:40:06.800Z,99858.72
2022-12-16T02:41:19.863Z,99864.44
2022-12-16T02:42:27.909Z,99861.44
2022-12-16T02:43:51.484Z,99856.50
2022-12-16T02:45:01.615Z,99858.50
2022-12-16T02:46:06.581Z,99860.34
2022-12-16T02:47:09.360Z,99856.88
2022-12-16T02:48:15.157Z,99858.63
2022-12-16T02:49:48.375Z,99855.59
2022-12-16T02:50:53.294Z,99862.19
2022-12-16T02:51:55.795Z,99852.22
2022-12-16T02:53:00.146Z,99857.63
2022-12-16T02:54:02.686Z,99858.50
2022-12-16T02:55:10.069Z,99859.69
2022-12-16T02:56:25.200Z,99857.41
2022-12-16T02:57:52.591Z,99860.34
2022-12-16T02:59:03.012Z,99857.50
2022-12-16T03:00:08.482Z,99865.19
2022-12-16T03:01:22.277Z,99865.38
2022-12-16T03:02:31.450Z,99859.72
2022-12-16T03:03:38.638Z,99864.59
2022-12-16T03:04:44.893Z,99858.72
2022-12-16T03:05:49.294Z,99864.19
2022-12-16T03:06:54.226Z,99867.09
2022-12-16T03:07:59.192Z,99864.69
2022-12-16T03:09:07.610Z,99872.72
2022-12-16T03:10:14.924Z,99869.81
2022-12-16T03:11:17.563Z,99872.34
2022-12-16T03:12:21.980Z,99877.31
2022-12-16T03:13:26.048Z,99878.97
2022-12-16T03:14:32.297Z,99877.78
2022-12-16T03:15:36.651Z,99876.25
2022-12-16T03:16:40.281Z,99879.47
2022-12-16T03:17:45.594Z,99879.22
2022-12-16T03:18:56.739Z,99869.19
2022-12-16T03:20:06.965Z,99868.03
2022-12-16T03:21:10.130Z,99865.88
2022-12-16T03:22:18.220Z,99876.50
2022-12-16T03:23:26.429Z,99878.91
2022-12-16T03:24:30.287Z,99875.53
2022-12-16T03:25:35.598Z,99884.03
2022-12-16T03:26:45.621Z,99881.88
2022-12-16T03:27:56.256Z,99881.75
2022-12-16T03:29:03.190Z,99883.59
2022-12-16T03:30:09.638Z,99887.13
2022-12-16T03:31:21.403Z,99884.66
2022-12-16T03:32:31.320Z,99880.72
2022-12-16T03:33:39.383Z,99885.72
2022-12-16T03:34:45.163Z,99881.06
2022-12-16T03:35:53.262Z,99882.00
2022-12-16T03:37:02.225Z,99878.22
2022-12-16T03:38:07.109Z,99886.59
2022-12-16T03:39:10.921Z,99883.56
2022-12-16T03:40:16.574Z,99885.25
2022-12-16T03:41:21.981Z,99882.44
2022-12-16T03:42:25.928Z,99891.63
2022-12-16T03:43:28.160Z,99884.66
2022-12-16T03:44:31.496Z,99888.53
2022-12-16T03:45:38.038Z,99890.97
2022-12-16T03:46:40.744Z,99883.66
2022-12-16T03:47:48.773Z,99885.94
2022-12-16T03:48:52.970Z,99880.72
2022-12-16T03:49:54.855Z,99885.06
2022-12-16T03:50:57.438Z,99888.84
2022-12-16T03:51:59.093Z,99897.78
2022-12-16T03:53:02.477Z,99888.81
2022-12-16T03:54:04.412Z,99890.16
2022-12-16T03:55:07.282Z,99888.31
2022-12-16T03:56:09.163Z,99887.50
2022-12-16T03:57:15.428Z,99886.84
2022-12-16T03:58:17.747Z,99877.06
2022-12-16T03:59:20.587Z,99876.25
2022-12-16T04:00:22.161Z,99883.38
2022-12-16T04:01:24.817Z,99879.88
2022-12-16T04:02:26.592Z,99874.63
2022-12-16T04:03:31.284Z,99882.81
2022-12-16T04:04:33.114Z,99884.34
2022-12-16T04:05:35.711Z,99886.56
2022-12-16T04:06:37.322Z,99887.63
2022-12-16T04:07:39.937Z,99893.13
2022-12-16T04:08:41.491Z,99890.28
2022-12-16T04:09:44.281Z,99886.78
2022-12-16T04:11:04.630Z,99890.66
2022-12-16T04:12:24.938Z,99889.22
2022-12-16T04:13:45.311Z,99884.47
2022-12-16T04:15:05.655Z,99884.69
2022-12-16T04:16:27.817Z,99891.69
2022-12-16T04:17:48.183Z,99888.69
2022-12-16T04:19:12.738Z,99894.22
2022-12-16T04:20:40.306Z,99898.63
2022-12-16T04:22:00.481Z,99892.28
2022-12-16T04:23:21.354Z,99897.31
2022-12-16T04:24:26.895Z,99896.25
2022-12-16T04:25:32.344Z,99889.97
2022-12-16T04:26:55.841Z,99892.75
2022-12-16T04:27:58.584Z,99897.88
2022-12-16T04:29:04.362Z,99905.25
2022-12-16T04:30:19.085Z,99906.72
2022-12-16T04:31:21.680Z,99903.28
2022-12-16T04:32:23.505Z,99910.69
2022-12-16T04:33:43.715Z,99908.81
2022-12-16T04:34:46.606Z,99910.59
2022-12-16T04:36:06.941Z,99907.47
2022-12-16T04:37:26.947Z,99911.16
2022-12-16T04:38:47.326Z,99911.56
2022-12-16T04:40:07.643Z,99916.31
2022-12-16T04:41:28.099Z,99910.69
2022-12-16T04:42:48.578Z,99922.75
2022-12-16T04:44:09.298Z,99918.63
2022-12-16T04:45:29.927Z,99918.63
2022-12-16T04:46:50.085Z,99926.00
2022-12-16T04:48:12.281Z,99935.59
2022-12-16T04:49:32.545Z,99922.19
2022-12-16T04:50:54.308Z,99928.78
2022-12-16T04:52:14.459Z,99926.09
2022-12-16T04:53:35.080Z,99927.16
2022-12-16T04:54:55.465Z,99927.56
2022-12-16T04:56:15.554Z,99933.00
2022-12-16T04:57:35.666Z,99937.81
2022-12-16T04:58:55.895Z,99933.16
2022-12-16T05:00:16.404Z,99936.47
2022-12-16T05:01:36.657Z,99936.47
2022-12-16T05:02:56.846Z,99937.13
2022-12-16T05:04:16.886Z,99933.00
2022-12-16T05:05:36.106Z,99933.66
2022-12-16T05:06:57.376Z,99936.00
2022-12-16T05:08:17.498Z,99937.16
2022-12-16T05:09:46.323Z,99934.50
2022-12-16T05:11:08.552Z,99930.38
2022-12-16T05:12:28.694Z,99937.44
2022-12-16T05:13:49.058Z,99935.50
2022-12-16T05:15:09.377Z,99930.38
2022-12-16T05:16:29.790Z,99926.38
2022-12-16T05:17:50.213Z,99933.78
2022-12-16T05:19:10.493Z,99931.53
2022-12-16T05:20:30.524Z,99932.13
2022-12-16T05:21:50.896Z,99927.38
2022-12-16T05:23:14.156Z,99926.25
2022-12-16T05:24:34.388Z,99923.75
2022-12-16T05:25:54.457Z,99929.34
2022-12-16T05:27:14.702Z,99934.94
2022-12-16T05:28:35.427Z,99933.50
2022-12-16T05:29:55.536Z,99923.53
2022-12-16T05:31:15.701Z,99934.34
2022-12-16T05:32:35.891Z,99929.69
2022-12-16T05:33:56.531Z,99934.84
2022-12-16T05:35:16.458Z,99932.81
2022-12-16T05:36:37.317Z,99930.22
2022-12-16T05:37:57.486Z,99935.50
2022-12-16T05:39:18.811Z,99936.66
2022-12-16T05:40:39.260Z,99937.63
2022-12-16T05:41:59.605Z,99940.78
2022-12-16T05:43:20.082Z,99941.72
2022-12-16T05:44:40.292Z,99944.41
2022-12-16T05:46:00.606Z,99944.84
2022-12-16T05:47:20.749Z,99951.63
2022-12-16T05:48:45.976Z,99953.81
2022-12-16T05:50:07.941Z,99956.31
2022-12-16T05:51:28.031Z,99965.25
2022-12-16T05:52:48.557Z,99961.94
2022-12-16T05:54:08.657Z,99961.94
2022-12-16T05:55:41.730Z,99961.28
2022-12-16T05:57:01.960Z,99963.25
2022-12-16T05:58:22.482Z,99967.38
2022-12-16T05:59:43.164Z,99965.91
2022-12-16T06:01:03.348Z,99968.81
2022-12-16T06:02:24.313Z,99968.19
2022-12-16T06:03:44.559Z,99966.41
2022-12-16T06:05:04.830Z,99970.38
2022-12-16T06:06:25.884Z,99963.41
2022-12-16T06:07:46.050Z,99981.75
2022-12-16T06:09:06.202Z,99974.97
2022-12-16T06:10:27.195Z,99980.41
2022-12-16T06:11:48.886Z,99989.19
2022-12-16T06:13:09.311Z,99988.19
2022-12-16T06:14:29.388Z,99988.69
2022-12-16T06:15:49.761Z,99995.28
2022-12-16T06:17:09.805Z,99990.66
2022-12-16T06:18:30.199Z,99995.63
2022-12-16T06:19:50.396Z,100000.25
2022-12-16T06:21:10.660Z,99995.44
2022-12-16T06:22:30.998Z,100000.41
2022-12-16T06:23:51.537Z,99999.25
2022-12-16T06:25:11.612Z,100001.06
2022-12-16T06:26:32.597Z,100008.50
2022-12-16T06:27:54.068Z,100012.16
2022-12-16T06:29:14.114Z,100008.50
2022-12-16T06:30:34.502Z,100011.31
2022-12-16T06:31:54.905Z,100012.81
2022-12-16T06:33:15.118Z,100018.25
2022-12-16T06:34:35.433Z,100027.69
2022-12-16T06:35:55.524Z,100027.69
2022-12-16T06:37:15.687Z,100028.50
2022-12-16T06:38:36.105Z,100022.34
2022-12-16T06:39:56.529Z,100025.97
2022-12-16T06:41:16.807Z,100029.94
2022-12-16T06:42:36.913Z,100034.09
2022-12-16T06:43:58.611Z,100033.44
2022-12-16T06:45:18.875Z,100032.13
2022-12-16T06:46:39.091Z,100041.38
2022-12-16T06:48:01.533Z,100051.44
2022-12-16T06:49:21.865Z,100047.13
2022-12-16T06:50:44.976Z,100051.09
2022-12-16T06:52:05.462Z,100052.59
2022-12-16T06:53:25.638Z,100058.03
2022-12-16T06:54:45.569Z,100056.47
2022-12-16T06:56:05.949Z,100070.91
2022-12-16T06:57:26.213Z,100068.94
2022-12-16T06:58:46.273Z,100063.94
2022-12-16T07:00:07.637Z,100072.56
2022-12-16T07:01:27.804Z,100075.06
2022-12-16T07:02:48.074Z,100070.63
2022-12-16T07:04:08.177Z,100077.22
2022-12-16T07:05:28.230Z,100079.19
2022-12-16T07:06:48.384Z,100086.31
2022-12-16T07:08:09.527Z,100067.97
2022-12-16T07:09:29.539Z,100079.53
2022-12-16T07:10:49.834Z,100086.13
2022-12-16T07:12:09.054Z,100088.13
2022-12-16T07:13:29.398Z,100092.72
2022-12-16T07:14:49.887Z,100090.59
2022-12-16T07:16:11.622Z,100092.06
2022-12-16T07:17:28.275Z,100095.72
2022-12-16T07:18:48.820Z,100094.41
2022-12-16T07:20:09.022Z,100090.44
2022-12-16T07:21:29.433Z,100085.75
2022-12-16T07:22:58.466Z,100099.47
2022-12-16T07:24:22.023Z,100101.22
2022-12-16T07:25:45.132Z,100101.84
2022-12-16T07:27:05.541Z,100097.63
2022-12-16T07:28:25.957Z,100100.09
2022-12-16T07:29:46.162Z,100102.81
2022-12-16T07:31:06.361Z,100108.09
2022-12-16T07:32:27.775Z,100112.22
2022-12-16T07:33:48.272Z,100114.25
2022-12-16T07:35:08.241Z,100116.22
2022-12-16T07:36:28.655Z,100118.56
2022-12-16T07:37:48.745Z,100119.19
2022-12-16T07:39:08.888Z,100119.03
2022-12-16T07:40:29.872Z,100128.50
2022-12-16T07:41:49.631Z,100125.22
2022-12-16T07:43:09.866Z,100125.63
2022-12-16T07:44:30.158Z,100132.00
2022-12-16T07:45:50.964Z,100132.09
2022-12-16T07:47:10.751Z,100126.69
2022-12-16T07:48:32.183Z,100136.94
2022-12-16T07:49:57.693Z,100135.81
2022-12-16T07:51:17.920Z,100148.03
2022-12-16T07:52:38.438Z,100139.06
2022-12-16T07:53:58.678Z,100139.69
2022-12-16T07:55:17.914Z,100142.22
2022-12-16T07:56:37.869Z,100130.06
2022-12-16T07:57:58.213Z,100137.41
2022-12-16T07:59:18.585Z,100134.22
2022-12-16T08:00:38.548Z,100142.97
2022-12-16T08:01:58.894Z,100141.66
2022-12-16T08:03:19.260Z,100144.97
2022-12-16T08:04:40.557Z,100139.31
2022-12-16T08:06:00.903Z,100143.66
2022-12-16T08:07:20.959Z,100147.75
2022-12-16T08:08:40.924Z,100149.75
2022-12-16T08:10:01.264Z,100151.94
2022-12-16T08:11:21.605Z,100152.56
2022-12-16T08:12:41.989Z,100156.22
2022-12-16T08:14:02.765Z,100153.59
2022-12-16T08:15:23.673Z,100151.63
2022-12-16T08:16:43.694Z,100151.59
2022-12-16T08:18:07.945Z,100153.06
2022-12-16T08:19:29.387Z,100167.06
2022-12-16T08:20:50.867Z,100165.53
2022-12-16T08:22:10.968Z,100162.28
2022-12-16T08:23:31.350Z,100170.19
2022-12-16T08:24:53.806Z,100176.16
2022-12-16T08:26:16.372Z,100175.31
2022-12-16T08:27:36.962Z,100176.53
2022-12-16T08:28:53.486Z,100174.31
2022-12-16T08:30:13.818Z,100178.84
2022-12-16T08:31:34.092Z,100176.22
2022-12-16T08:32:58.923Z,100172.94
2022-12-16T08:34:21.009Z,100179.41
2022-12-16T08:35:41.195Z,100179.75
2022-12-16T08:37:02.841Z,100183.22
2022-12-16T08:38:23.186Z,100178.44
2022-12-16T08:39:43.518Z,100181.91
2022-12-16T08:41:04.174Z,100175.28
2022-12-16T08:42:24.595Z,100184.72
2022-12-16T08:43:44.800Z,100178.75
2022-12-16T08:45:05.116Z,100185.41
2022-12-16T08:46:25.408Z,100184.69
2022-12-16T08:47:46.153Z,100186.19
2022-12-16T08:49:06.791Z,100184.53
2022-12-16T08:50:27.680Z,100180.59
2022-12-16T08:51:47.492Z,100185.22
2022-12-16T08:53:09.283Z,100178.75
2022-12-16T08:54:29.633Z,100185.22
2022-12-16T08:55:49.689Z,100182.91
2022-12-16T08:57:09.944Z,100190.19
2022-12-16T08:58:30.091Z,100187.56
2022-12-16T08:59:50.515Z,100185.72
2022-12-16T09:01:10.873Z,100190.34
2022-12-16T09:02:31.800Z,100189.03
2022-12-16T09:03:52.338Z,100193.66
2022-12-16T09:05:12.888Z,100199.63
2022-12-16T09:06:38.470Z,100199.28
2022-12-16T09:08:00.330Z,100206.09
2022-12-16T09:09:21.958Z,100203.25
2022-12-16T09:10:42.012Z,100206.53
2022-12-16T09:12:02.230Z,100201.25
2022-12-16T09:13:31.331Z,100204.56
2022-12-16T09:14:51.661Z,100214.31
2022-12-16T09:16:17.378Z,100213.31
2022-12-16T09:17:39.512Z,100214.16
2022-12-16T09:18:59.707Z,100215.66
2022-12-16T09:20:19.663Z,100214.28
2022-12-16T09:21:39.097Z,100214.31
2022-12-16T09:22:59.381Z,100219.41
2022-12-16T09:24:19.788Z,100215.72
2022-12-16T09:25:41.433Z,100218.72
2022-12-16T09:27:02.473Z,100221.66
2022-12-16T09:28:22.821Z,100226.25
2022-12-16T09:29:45.077Z,100225.84
2022-12-16T09:31:05.735Z,100220.50
2022-12-16T09:32:22.262Z,100218.50
2022-12-16T09:33:42.394Z,100226.78
2022-12-16T09:35:03.735Z,100226.38
2022-12-16T09:36:26.002Z,100234.38
2022-12-16T09:37:46.444Z,100220.72
2022-12-16T09:39:06.522Z,100228.94
2022-12-16T09:40:31.550Z,100223.22
2022-12-16T09:42:11.754Z,100218.50
2022-12-16T09:43:50.783Z,100219.78
2022-12-16T09:45:19.597Z,100219.09
2022-12-16T09:46:50.282Z,100232.00
2022-12-16T09:48:16.274Z,100221.72
2022-12-16T09:49:48.483Z,100230.97
2022-12-16T09:51:14.102Z,100226.72
2022-12-16T09:52:40.101Z,100221.59
2022-12-16T09:54:03.370Z,100224.09
2022-12-16T09:55:27.523Z,100230.63
2022-12-16T09:56:51.616Z,100227.88
2022-12-16T09:58:16.397Z,100229.06
2022-12-16T09:59:43.783Z,100232.06
2022-12-16T10:01:04.619Z,100231.31
2022-12-16T10:02:28.957Z,100230.78
2022-12-16T10:03:56.650Z,100229.53
2022-12-16T10:05:18.174Z,100237.22
2022-12-16T10:06:51.941Z,100237.69
2022-12-16T10:08:19.192Z,100232.69
2022-12-16T10:09:46.564Z,100240.50
2022-12-16T10:11:29.632Z,100235.53
2022-12-16T10:12:59.563Z,100225.63
2022-12-16T10:14:27.950Z,100230.72
2022-12-16T10:15:55.750Z,100237.00
2022-12-16T10:17:23.476Z,100234.06
2022-12-16T10:19:04.746Z,100226.41
2022-12-16T10:20:29.137Z,100229.91
2022-12-16T10:21:55.286Z,100223.09
2022-12-16T10:23:21.660Z,100232.66
2022-12-16T10:24:52.667Z,100231.47
2022-12-16T10:26:20.193Z,100239.59
2022-12-16T10:27:49.109Z,100239.41
2022-12-16T10:29:15.876Z,100245.38
2022-12-16T10:30:42.854Z,100244.75
2022-12-16T10:32:03.569Z,100248.88
2022-12-16T10:33:29.283Z,100256.22
2022-12-16T10:34:54.053Z,100250.00
2022-12-16T10:36:15.130Z,100245.97
2022-12-16T10:37:42.176Z,100256.56
2022-12-16T10:39:06.371Z,100258.25
2022-12-16T10:40:34.112Z,100262.16
2022-12-16T10:41:58.734Z,100262.63
2022-12-16T10:43:22.978Z,100260.13
2022-12-16T10:44:47.972Z,100258.22
2022-12-16T10:46:12.653Z,100257.56
2022-12-16T10:47:32.870Z,100254.94
2022-12-16T10:48:56.632Z,100260.81
2022-12-16T10:50:17.916Z,100258.25
2022-12-16T10:51:40.645Z,100259.38
2022-12-16T10:53:09.868Z,100263.84
2022-12-16T10:54:47.180Z,100255.34
2022-12-16T10:56:21.994Z,100261.91
2022-12-16T10:57:52.985Z,100259.63
2022-12-16T10:59:16.802Z,100256.81
2022-12-16T11:00:38.624Z,100265.41
2022-12-16T11:02:00.417Z,100247.69
2022-12-16T11:03:38.684Z,100260.13
2022-12-16T11:04:59.377Z,100257.88
2022-12-16T11:06:20.341Z,100251.97
2022-12-16T11:07:49.926Z,100257.97
2022-12-16T11:09:11.321Z,100258.41
2022-12-16T11:10:47.042Z,100249.22
2022-12-16T11:12:07.568Z,100245.16
2022-12-16T11:13:35.455Z,100241.84
2022-12-16T11:15:27.649Z,100244.91
2022-12-16T11:16:40.945Z,100246.41
2022-12-16T11:18:20.626Z,100245.16
2022-12-16T11:19:42.389Z,100248.03
2022-12-16T11:21:06.865Z,100248.81
2022-12-16T11:22:33.288Z,100251.13
2022-12-16T11:23:53.532Z,100243.50
2022-12-16T11:25:24.498Z,100247.13
2022-12-16T11:26:45.108Z,100249.44
2022-12-16T11:28:06.201Z,100251.13
2022-12-16T11:29:31.864Z,100254.97
2022-12-16T11:31:04.496Z,100252.13
2022-12-16T11:32:36.328Z,100251.13
2022-12-16T11:34:00.762Z,100254.84
2022-12-16T11:35:23.219Z,100254.22
2022-12-16T11:36:45.536Z,100260.19
2022-12-16T11:38:08.748Z,100259.78
2022-12-16T11:39:33.960Z,100265.59
2022-12-16T11:40:55.347Z,100257.84
2022-12-16T11:42:18.800Z,100265.75
2022-12-16T11:43:40.091Z,100261.06
2022-12-16T11:45:02.792Z,100258.16
2022-12-16T11:46:28.618Z,100263.28
2022-12-16T11:47:56.246Z,100262.91
2022-12-16T11:49:24.979Z,100276.97
2022-12-16T11:51:02.451Z,100279.16
2022-12-16T11:52:39.729Z,100281.09
2022-12-16T11:54:04.922Z,100278.16
2022-12-16T11:57:16.655Z,100275.53
2022-12-16T11:58:44.154Z,100273.22
2022-12-16T12:00:11.190Z,100276.13
2022-12-16T12:01:38.831Z,100283.63
2022-12-16T12:03:12.777Z,100279.84
2022-12-16T12:04:31.036Z,100284.19
2022-12-16T12:05:56.996Z,100280.66
2022-12-16T12:07:44.495Z,100279.81
2022-12-16T12:09:12.489Z,100275.34
2022-12-16T12:10:46.681Z,100278.31
2022-12-16T12:12:13.103Z,100275.28
2022-12-16T12:13:46.740Z,100279.94
2022-12-16T12:15:12.169Z,100286.09
2022-12-16T12:16:39.666Z,100280.34
2022-12-16T12:18:08.059Z,100276.41
2022-12-16T12:19:37.271Z,100284.81
2022-12-16T12:21:09.492Z,100274.47
2022-12-16T12:22:34.372Z,100287.03
2022-12-16T12:24:03.629Z,100294.91
2022-12-16T12:25:29.254Z,100288.66
2022-12-16T12:26:51.508Z,100290.59
2022-12-16T12:28:21.410Z,100289.47
2022-12-16T12:29:51.835Z,100301.16
2022-12-16T12:31:20.212Z,100295.94
2022-12-16T12:32:48.387Z,100294.09
2022-12-16T12:34:22.866Z,100284.00
2022-12-16T12:35:56.868Z,100297.03
2022-12-16T12:37:27.255Z,100291.09
2022-12-16T12:39:08.755Z,100299.19
2022-12-16T12:40:41.733Z,100296.53
2022-12-16T12:42:18.316Z,100301.97
2022-12-16T12:43:51.627Z,100309.63
2022-12-16T12:45:35.009Z,100307.13
2022-12-16T12:47:03.924Z,100315.53
2022-12-16T12:48:31.238Z,100307.13
2022-12-16T12:49:58.121Z,100303.88
2022-12-16T12:51:26.474Z,100313.41
2022-12-16T12:53:14.610Z,100312.06
2022-12-16T12:54:44.641Z,100321.59
2022-12-16T12:56:15.076Z,100319.88
2022-12-16T12:57:39.672Z,100325.13
2022-12-16T12:59:01.775Z,100330.03
2022-12-16T13:00:25.152Z,100329.16
2022-12-16T13:01:49.251Z,100332.22
2022-12-16T13:03:16.604Z,100334.00
2022-12-16T13:04:39.999Z,100332.84
2022-12-16T13:06:01.117Z,100338.53
2022-12-16T13:07:21.729Z,100337.69
2022-12-16T13:09:01.831Z,100341.38
2022-12-16T13:10:50.596Z,100341.38
2022-12-16T13:12:38.963Z,100354.97
2022-12-16T13:13:59.406Z,100349.22
2022-12-16T13:15:23.300Z,100347.34
2022-12-16T13:17:18.896Z,100365.00
2022-12-16T13:18:45.855Z,100360.00
2022-12-16T13:20:16.452Z,100360.25
2022-12-16T13:22:06.338Z,100365.72
2022-12-16T13:23:47.229Z,100363.22
2022-12-16T13:25:10.391Z,100372.97
2022-12-16T13:26:32.242Z,100366.50
2022-12-16T13:28:14.735Z,100371.03
2022-12-16T13:29:39.330Z,100371.63
2022-12-16T13:31:20.097Z,100367.50
2022-12-16T13:32:44.642Z,100367.41
2022-12-16T13:34:15.178Z,100373.56
2022-12-16T13:35:36.591Z,100372.03
2022-12-16T13:36:57.915Z,100373.59
2022-12-16T13:38:20.774Z,100379.53
2022-12-16T13:39:43.575Z,100373.75
2022-12-16T13:41:11.583Z,100379.38
2022-12-16T13:43:06.007Z,100376.69
2022-12-16T13:44:26.794Z,100374.72
2022-12-16T13:45:49.839Z,100369.53
2022-12-16T13:47:11.946Z,100380.69
2022-12-16T13:48:52.659Z,100380.28
2022-12-16T13:50:12.980Z,100381.88
2022-12-16T13:52:24.865Z,100387.84
2022-12-16T13:53:47.690Z,100388.88
2022-12-16T13:55:20.092Z,100405.78
2022-12-16T13:56:52.401Z,100404.34
2022-12-16T13:58:21.884Z,100400.81
2022-12-16T13:59:44.680Z,100416.94
2022-12-16T14:01:15.063Z,100413.72
2022-12-16T14:02:46.114Z,100416.19
2022-12-16T14:04:07.706Z,100424.59
2022-12-16T14:05:39.254Z,100426.09
2022-12-16T14:06:59.580Z,100433.81
2022-12-16T14:08:21.201Z,100432.00
2022-12-16T14:10:00.997Z,100431.53
2022-12-16T14:11:22.771Z,100441.56
2022-12-16T14:13:11.262Z,100435.22
2022-12-16T14:14:41.232Z,100431.91
2022-12-16T14:16:13.215Z,100431.09
2022-12-16T14:17:50.697Z,100437.34
2022-12-16T14:19:29.591Z,100429.03
2022-12-16T14:20:58.295Z,100440.88
2022-12-16T14:22:38.940Z,100440.59
2022-12-16T14:24:04.515Z,100448.44
2022-12-16T14:25:31.287Z,100449.31
2022-12-16T14:26:52.858Z,100448.19
2022-12-16T14:28:14.316Z,100449.97
2022-12-16T14:29:40.323Z,100451.66
2022-12-16T14:31:00.735Z,100448.44
2022-12-16T14:32:37.593Z,100455.22
2022-12-16T14:33:59.503Z,100464.69
2022-12-16T14:35:34.857Z,100470.59
2022-12-16T14:36:57.823Z,100473.06
2022-12-16T14:38:32.780Z,100470.13
2022-12-16T14:39:57.011Z,100475.28
2022-12-16T14:41:17.378Z,100480.47
2022-12-16T14:42:40.632Z,100473.66
2022-12-16T14:44:03.034Z,100473.59
2022-12-16T14:45:24.290Z,100471.34
2022-12-16T14:46:48.439Z,100478.53
2022-12-16T14:48:08.660Z,100475.88
2022-12-16T14:49:38.281Z,100477.03
2022-12-16T14:51:00.584Z,100474.19
2022-12-16T14:52:20.926Z,100477.78
2022-12-16T14:53:43.092Z,100470.25
2022-12-16T14:55:19.269Z,100476.81
2022-12-16T14:56:42.362Z,100474.53
2022-12-16T14:58:02.477Z,100470.94
2022-12-16T14:59:28.334Z,100472.66
2022-12-16T15:00:48.783Z,100479.94
2022-12-16T15:02:10.633Z,100479.50
2022-12-16T15:03:39.084Z,100485.56
2022-12-16T15:05:00.311Z,100493.03
2022-12-16T15:06:22.893Z,100492.44